»·PEaware :: N66P KPSP-KCRQ

N66P :: KPSP-KCRQ

FLIGHT INFORMATION

Flight Status: Arrived
Operator: Privately registered:
United States
More flights under this callsign
Pilot: Scott C. (31939)
Aircraft: CESSNA 172 SKYHAWK
(C172)
More flights by this aircraft type
Origin: KPSP Palm Springs Intl
United States
Destination: KCRQ McClellan-Palomar
United States
More flights between these airports :: More routes between these airports
Route: +
File this flight plan on PilotEdge
Remarks:
Altitude:
(Current/Filed)
6,500ft
Speed:
(Current/Filed)
0kts
Departed: 09-Oct-20 10:29 AM
Arrived: 09-Oct-20 11:11 AM
Distance/Time
Traveled:
57nm/0:42
Distance/Time
To Go:
Arrived

Flight Plot

Page will automatically refresh every two minutes.


Map Options




Map Legend


Flown Route
Filed Route
Departure Airport
Arrival Airport
Navaid (VOR, NDB)
Fix

Horizontal Profiles

Position Reports

Time Latitude Longitude Heading Altitude Ground
Speed
09-Oct-20 10:18 33.824419 -116.498592 49 407ft 0kts
09-Oct-20 10:19 33.824419 -116.498592 49 407ft 0kts
09-Oct-20 10:20 33.824419 -116.498592 49 407ft 0kts
09-Oct-20 10:21 33.824419 -116.498592 49 407ft 0kts
09-Oct-20 10:22 33.824419 -116.498592 49 407ft 0kts
09-Oct-20 10:23 33.824419 -116.498592 49 407ft 0kts
09-Oct-20 10:24 33.824745 -116.498942 262 407ft 9kts
09-Oct-20 10:25 33.824637 -116.499559 238 408ft 0kts
09-Oct-20 10:26 33.824637 -116.499559 238 408ft 0kts
09-Oct-20 10:27 33.824637 -116.499559 238 408ft 0kts
09-Oct-20 10:28 33.824441 -116.499955 264 408ft 10kts
09-Oct-20 10:29 33.836793 -116.511649 318 805ft 75kts
09-Oct-20 10:30 33.852660 -116.528726 318 1547ft 77kts
09-Oct-20 10:31 33.868395 -116.547214 311 2259ft 81kts
09-Oct-20 10:32 33.882630 -116.568315 310 2980ft 83kts
09-Oct-20 10:33 33.893079 -116.592468 288 3713ft 83kts
09-Oct-20 10:34 33.895986 -116.619575 263 4378ft 83kts
09-Oct-20 10:34 33.893694 -116.642811 262 4908ft 84kts
09-Oct-20 10:36 33.890722 -116.675618 264 5616ft 85kts
09-Oct-20 10:36 33.888533 -116.705837 265 5375ft 109kts
09-Oct-20 10:37 33.888002 -116.742043 271 5176ft 108kts
09-Oct-20 10:38 33.890747 -116.778026 273 4989ft 108kts
09-Oct-20 10:39 33.885003 -116.812754 242 4814ft 107kts
09-Oct-20 10:40 33.867542 -116.841386 239 4699ft 102kts
09-Oct-20 10:41 33.853206 -116.871022 247 5097ft 102kts
09-Oct-20 10:42 33.836273 -116.899076 245 5334ft 108kts
09-Oct-20 10:43 33.807621 -116.908096 193 5166ft 117kts
09-Oct-20 10:44 33.777050 -116.919392 198 4697ft 111kts
09-Oct-20 10:45 33.746698 -116.930212 199 4200ft 112kts
09-Oct-20 10:46 33.719544 -116.948913 217 3738ft 112kts
09-Oct-20 10:47 33.692601 -116.967708 209 3416ft 110kts
09-Oct-20 10:48 33.666233 -116.986512 219 3275ft 111kts
09-Oct-20 10:49 33.644758 -117.011154 225 3573ft 111kts
09-Oct-20 10:50 33.620580 -117.034425 210 3404ft 112kts
09-Oct-20 10:51 33.592249 -117.049410 205 3264ft 110kts
09-Oct-20 10:52 33.565003 -117.067204 210 3108ft 110kts
09-Oct-20 10:53 33.536488 -117.081394 194 2966ft 111kts
09-Oct-20 10:54 33.507233 -117.093079 205 2829ft 111kts
09-Oct-20 10:55 33.481009 -117.112086 208 2731ft 111kts
09-Oct-20 10:56 33.453587 -117.128499 206 2861ft 110kts
09-Oct-20 10:57 33.426658 -117.145804 214 2996ft 110kts
09-Oct-20 10:58 33.397455 -117.157051 201 2619ft 111kts
09-Oct-20 10:59 33.369268 -117.171717 201 2178ft 108kts
09-Oct-20 11:00 33.341104 -117.185427 198 1816ft 108kts
09-Oct-20 11:01 33.313693 -117.198125 207 1652ft 100kts
09-Oct-20 11:02 33.289831 -117.215619 216 1666ft 99kts
09-Oct-20 11:03 33.269053 -117.236857 223 1723ft 98kts
09-Oct-20 11:04 33.242513 -117.246054 192 1669ft 102kts
09-Oct-20 11:05 33.214849 -117.253671 187 1550ft 103kts
09-Oct-20 11:06 33.187424 -117.251742 168 1424ft 97kts
09-Oct-20 11:07 33.160743 -117.246230 173 1422ft 85kts
09-Oct-20 11:08 33.140059 -117.245579 190 1064ft 73kts
09-Oct-20 11:09 33.130818 -117.264020 259 616ft 65kts
09-Oct-20 11:10 33.127847 -117.279579 226 331ft 23kts
09-Oct-20 11:11 33.127215 -117.280121 162 330ft 13kts
09-Oct-20 11:12 33.125856 -117.280083 260 329ft 0kts
09-Oct-20 11:13 33.125856 -117.280083 260 329ft 0kts
09-Oct-20 11:14 34.084331 -118.034375 26 289ft 0kts
09-Oct-20 11:15 34.084331 -118.034375 26 293ft 0kts
09-Oct-20 11:16 34.084331 -118.034375 26 293ft 0kts
09-Oct-20 11:17 34.084331 -118.034375 26 293ft 0kts
09-Oct-20 11:18 34.084331 -118.034375 26 293ft 0kts
09-Oct-20 11:19 34.084331 -118.034375 26 293ft 0kts
09-Oct-20 11:20 0.000408 0.013975 0 3ft 0kts
09-Oct-20 11:21 0.000408 0.013975 0 3ft 0kts
09-Oct-20 11:22 0.000408 0.013975 0 3ft 0kts
09-Oct-20 11:23 0.000408 0.013975 0 3ft 0kts
09-Oct-20 11:24 33.127450 -117.278650 348 328ft 0kts
09-Oct-20 11:25 33.127450 -117.278650 348 331ft 0kts

Navigation Log

Ident Type
Flight plan parsing failed, navigation log unavailable